sensor_id;sensor_type;location;lat;lon;timestamp;pressure;altitude;pressure_sealevel;temperature;humidity
58955;BME280;45815;52.334;5.024;2023-04-29T00:00:18;101539.09;;;9.87;100.00
58955;BME280;45815;52.334;5.024;2023-04-29T00:02:44;101538.94;;;9.82;100.00
58955;BME280;45815;52.334;5.024;2023-04-29T00:05:09;101546.41;;;9.96;100.00
58955;BME280;45815;52.334;5.024;2023-04-29T00:07:34;101554.25;;;9.96;100.00
58955;BME280;45815;52.334;5.024;2023-04-29T00:10:00;101554.25;;;9.96;100.00
58955;BME280;45815;52.334;5.024;2023-04-29T00:12:26;101540.00;;;9.87;100.00
58955;BME280;45815;52.334;5.024;2023-04-29T00:14:52;101557.19;;;10.05;100.00
58955;BME280;45815;52.334;5.024;2023-04-29T00:17:18;101557.34;;;10.09;100.00
58955;BME280;45815;52.334;5.024;2023-04-29T00:19:43;101559.09;;;10.10;100.00
58955;BME280;45815;52.334;5.024;2023-04-29T00:22:09;101550.91;;;10.00;100.00
58955;BME280;45815;52.334;5.024;2023-04-29T00:24:35;101566.81;;;10.06;100.00
58955;BME280;45815;52.334;5.024;2023-04-29T00:27:00;101572.06;;;10.06;100.00
58955;BME280;45815;52.334;5.024;2023-04-29T00:29:27;101559.59;;;9.99;100.00
58955;BME280;45815;52.334;5.024;2023-04-29T00:31:52;101567.56;;;10.02;100.00
58955;BME280;45815;52.334;5.024;2023-04-29T00:34:18;101571.69;;;9.93;100.00
58955;BME280;45815;52.334;5.024;2023-04-29T00:36:43;101569.94;;;9.94;100.00
58955;BME280;45815;52.334;5.024;2023-04-29T00:39:08;101575.81;;;9.87;100.00
58955;BME280;45815;52.334;5.024;2023-04-29T00:41:34;101580.09;;;9.83;100.00
58955;BME280;45815;52.334;5.024;2023-04-29T00:44:00;101585.31;;;9.83;100.00
58955;BME280;45815;52.334;5.024;2023-04-29T00:46:25;101582.72;;;9.85;100.00
58955;BME280;45815;52.334;5.024;2023-04-29T00:48:51;101583.63;;;9.85;100.00
58955;BME280;45815;52.334;5.024;2023-04-29T00:51:17;101582.63;;;9.82;100.00
58955;BME280;45815;52.334;5.024;2023-04-29T00:53:43;101582.56;;;9.80;100.00
58955;BME280;45815;52.334;5.024;2023-04-29T00:56:08;101593.13;;;9.82;100.00
58955;BME280;45815;52.334;5.024;2023-04-29T00:58:34;101597.50;;;9.81;100.00
58955;BME280;45815;52.334;5.024;2023-04-29T01:01:01;101587.88;;;9.82;100.00
58955;BME280;45815;52.334;5.024;2023-04-29T01:03:29;101602.72;;;9.81;100.00
58955;BME280;45815;52.334;5.024;2023-04-29T01:06:05;101581.53;;;9.75;100.00
58955;BME280;45815;52.334;5.024;2023-04-29T01:08:46;101600.22;;;9.84;100.00
58955;BME280;45815;52.334;5.024;2023-04-29T01:11:20;101601.16;;;9.86;100.00
58955;BME280;45815;52.334;5.024;2023-04-29T01:13:54;101604.50;;;9.82;100.00
58955;BME280;45815;52.334;5.024;2023-04-29T01:16:29;101607.34;;;9.88;100.00
58955;BME280;45815;52.334;5.024;2023-04-29T01:19:02;101614.19;;;9.85;100.00
58955;BME280;45815;52.334;5.024;2023-04-29T01:21:44;101608.69;;;9.77;100.00
58955;BME280;45815;52.334;5.024;2023-04-29T01:24:10;101612.44;;;9.84;100.00
58955;BME280;45815;52.334;5.024;2023-04-29T01:26:35;101615.22;;;9.88;100.00
58955;BME280;45815;52.334;5.024;2023-04-29T01:31:47;101619.69;;;9.92;100.00
58955;BME280;45815;52.334;5.024;2023-04-29T01:34:29;101625.09;;;9.97;100.00
58955;BME280;45815;52.334;5.024;2023-04-29T01:37:10;101625.16;;;9.99;100.00
58955;BME280;45815;52.334;5.024;2023-04-29T01:42:43;101627.88;;;10.02;100.00
58955;BME280;45815;52.334;5.024;2023-04-29T01:45:14;101630.41;;;9.99;100.00
58955;BME280;45815;52.334;5.024;2023-04-29T01:47:41;101631.25;;;9.98;100.00
58955;BME280;45815;52.334;5.024;2023-04-29T01:50:07;101633.09;;;10.00;100.00
58955;BME280;45815;52.334;5.024;2023-04-29T01:52:33;101635.50;;;9.94;100.00
58955;BME280;45815;52.334;5.024;2023-04-29T01:54:59;101633.91;;;9.99;100.00
58955;BME280;45815;52.334;5.024;2023-04-29T01:57:31;101633.41;;;9.84;100.00
58955;BME280;45815;52.334;5.024;2023-04-29T02:00:19;101631.25;;;9.98;100.00
58955;BME280;45815;52.334;5.024;2023-04-29T02:02:49;101632.31;;;10.03;100.00
58955;BME280;45815;52.334;5.024;2023-04-29T02:05:32;101638.44;;;10.03;100.00
58955;BME280;45815;52.334;5.024;2023-04-29T02:08:00;101638.53;;;10.06;100.00
58955;BME280;45815;52.334;5.024;2023-04-29T02:10:26;101642.88;;;10.06;100.00
58955;BME280;45815;52.334;5.024;2023-04-29T02:13:01;101646.38;;;10.05;100.00
58955;BME280;45815;52.334;5.024;2023-04-29T02:15:27;101645.44;;;10.04;100.00
58955;BME280;45815;52.334;5.024;2023-04-29T02:17:53;101651.66;;;10.06;100.00
58955;BME280;45815;52.334;5.024;2023-04-29T02:20:19;101639.13;;;9.98;100.00
58955;BME280;45815;52.334;5.024;2023-04-29T02:22:45;101656.84;;;10.05;100.00
58955;BME280;45815;52.334;5.024;2023-04-29T02:25:11;101648.53;;;9.92;100.00
58955;BME280;45815;52.334;5.024;2023-04-29T02:27:36;101659.94;;;9.93;100.00
58955;BME280;45815;52.334;5.024;2023-04-29T02:30:03;101662.41;;;9.88;100.00
58955;BME280;45815;52.334;5.024;2023-04-29T02:32:29;101654.31;;;9.82;100.00
58955;BME280;45815;52.334;5.024;2023-04-29T02:34:55;101667.75;;;9.91;100.00
58955;BME280;45815;52.334;5.024;2023-04-29T02:37:20;101662.59;;;9.94;100.00
58955;BME280;45815;52.334;5.024;2023-04-29T02:39:46;101670.47;;;9.94;100.00
58955;BME280;45815;52.334;5.024;2023-04-29T02:42:11;101675.72;;;9.94;100.00
58955;BME280;45815;52.334;5.024;2023-04-29T02:44:37;101674.00;;;9.95;100.00
58955;BME280;45815;52.334;5.024;2023-04-29T02:47:02;101675.72;;;9.94;100.00
58955;BME280;45815;52.334;5.024;2023-04-29T02:49:29;101680.25;;;9.99;100.00
58955;BME280;45815;52.334;5.024;2023-04-29T02:51:54;101683.03;;;10.03;100.00
58955;BME280;45815;52.334;5.024;2023-04-29T02:54:20;101683.72;;;9.98;100.00
58955;BME280;45815;52.334;5.024;2023-04-29T02:56:46;101685.47;;;9.99;100.00
58955;BME280;45815;52.334;5.024;2023-04-29T02:59:11;101687.28;;;10.00;100.00
58955;BME280;45815;52.334;5.024;2023-04-29T03:01:36;101690.72;;;9.99;100.00
58955;BME280;45815;52.334;5.024;2023-04-29T03:04:03;101690.00;;;10.03;100.00
58955;BME280;45815;52.334;5.024;2023-04-29T03:06:29;101695.28;;;10.04;100.00
58955;BME280;45815;52.334;5.024;2023-04-29T03:08:55;101694.41;;;10.04;100.00
58955;BME280;45815;52.334;5.024;2023-04-29T03:11:21;101700.53;;;10.04;100.00
58955;BME280;45815;52.334;5.024;2023-04-29T03:13:49;101698.91;;;10.08;100.00
58955;BME280;45815;52.334;5.024;2023-04-29T03:16:14;101710.25;;;10.07;100.00
58955;BME280;45815;52.334;5.024;2023-04-29T03:18:42;101694.19;;;9.98;100.00
58955;BME280;45815;52.334;5.024;2023-04-29T03:21:07;101710.25;;;10.07;100.00
58955;BME280;45815;52.334;5.024;2023-04-29T03:23:32;101704.00;;;10.03;100.00
58955;BME280;45815;52.334;5.024;2023-04-29T03:26:00;101716.13;;;10.00;100.00
58955;BME280;45815;52.334;5.024;2023-04-29T03:28:25;101722.38;;;10.03;100.00
58955;BME280;45815;52.334;5.024;2023-04-29T03:30:51;101718.00;;;10.04;100.00
58955;BME280;45815;52.334;5.024;2023-04-29T03:33:17;101719.69;;;10.02;100.00
58955;BME280;45815;52.334;5.024;2023-04-29T03:35:43;101722.25;;;10.00;100.00
58955;BME280;45815;52.334;5.024;2023-04-29T03:38:23;101720.31;;;9.94;100.00
58955;BME280;45815;52.334;5.024;2023-04-29T03:40:51;101724.00;;;10.00;100.00
58955;BME280;45815;52.334;5.024;2023-04-29T03:43:17;101736.16;;;9.98;100.00
58955;BME280;45815;52.334;5.024;2023-04-29T03:45:42;101732.59;;;9.96;100.00
58955;BME280;45815;52.334;5.024;2023-04-29T03:48:08;101737.59;;;9.89;100.00
58955;BME280;45815;52.334;5.024;2023-04-29T03:50:35;101733.41;;;9.94;100.00
58955;BME280;45815;52.334;5.024;2023-04-29T03:53:01;101736.09;;;9.96;100.00
58955;BME280;45815;52.334;5.024;2023-04-29T03:55:28;101739.50;;;9.93;100.00
58955;BME280;45815;52.334;5.024;2023-04-29T03:57:53;101743.91;;;9.94;100.00
58955;BME280;45815;52.334;5.024;2023-04-29T04:00:19;101727.81;;;9.84;100.00
58955;BME280;45815;52.334;5.024;2023-04-29T04:02:51;101753.56;;;9.96;100.00
58955;BME280;45815;52.334;5.024;2023-04-29T04:05:16;101747.38;;;9.93;100.00
58955;BME280;45815;52.334;5.024;2023-04-29T04:07:48;101756.66;;;9.84;100.00
58955;BME280;45815;52.334;5.024;2023-04-29T04:10:34;101768.97;;;9.86;100.00
58955;BME280;45815;52.334;5.024;2023-04-29T04:13:02;101764.53;;;9.85;100.00
58955;BME280;45815;52.334;5.024;2023-04-29T04:15:28;101766.34;;;9.86;100.00
58955;BME280;45815;52.334;5.024;2023-04-29T04:17:53;101770.75;;;9.87;100.00
58955;BME280;45815;52.334;5.024;2023-04-29T04:20:19;101772.47;;;9.87;100.00
58955;BME280;45815;52.334;5.024;2023-04-29T04:22:47;101772.53;;;9.88;100.00
58955;BME280;45815;52.334;5.024;2023-04-29T04:25:20;101772.47;;;9.87;100.00
58955;BME280;45815;52.334;5.024;2023-04-29T04:27:46;101769.97;;;9.90;100.00
58955;BME280;45815;52.334;5.024;2023-04-29T04:30:21;101775.34;;;9.93;100.00
58955;BME280;45815;52.334;5.024;2023-04-29T04:32:46;101777.91;;;9.91;100.00
58955;BME280;45815;52.334;5.024;2023-04-29T04:35:12;101778.91;;;9.95;100.00
58955;BME280;45815;52.334;5.024;2023-04-29T04:37:37;101779.91;;;9.99;100.00
58955;BME280;45815;52.334;5.024;2023-04-29T04:40:04;101792.34;;;10.04;100.00
58955;BME280;45815;52.334;5.024;2023-04-29T04:42:33;101787.16;;;10.06;100.00
58955;BME280;45815;52.334;5.024;2023-04-29T04:44:58;101787.16;;;10.06;100.00
58955;BME280;45815;52.334;5.024;2023-04-29T04:47:40;101802.91;;;10.06;100.00
58955;BME280;45815;52.334;5.024;2023-04-29T04:50:19;101801.91;;;10.02;100.00
58955;BME280;45815;52.334;5.024;2023-04-29T04:52:45;101803.56;;;10.00;100.00
58955;BME280;45815;52.334;5.024;2023-04-29T04:55:27;101807.94;;;10.00;100.00
58955;BME280;45815;52.334;5.024;2023-04-29T04:57:52;101813.44;;;10.07;100.00
58955;BME280;45815;52.334;5.024;2023-04-29T05:00:18;101822.31;;;10.11;100.00
58955;BME280;45815;52.334;5.024;2023-04-29T05:02:43;101820.53;;;10.10;100.00
58955;BME280;45815;52.334;5.024;2023-04-29T05:05:09;101819.66;;;10.09;100.00
58955;BME280;45815;52.334;5.024;2023-04-29T05:07:37;101823.22;;;10.11;100.00
58955;BME280;45815;52.334;5.024;2023-04-29T05:10:04;101825.88;;;10.13;100.00
58955;BME280;45815;52.334;5.024;2023-04-29T05:12:32;101823.25;;;10.13;100.00
58955;BME280;45815;52.334;5.024;2023-04-29T05:15:01;101826.84;;;10.15;100.00
58955;BME280;45815;52.334;5.024;2023-04-29T05:17:27;101830.34;;;10.15;100.00
58955;BME280;45815;52.334;5.024;2023-04-29T05:19:54;101830.25;;;10.12;100.00
58955;BME280;45815;52.334;5.024;2023-04-29T05:22:19;101840.91;;;10.17;100.00
58955;BME280;45815;52.334;5.024;2023-04-29T05:24:45;101835.75;;;10.20;100.00
58955;BME280;45815;52.334;5.024;2023-04-29T05:27:13;101843.53;;;10.17;100.00
58955;BME280;45815;52.334;5.024;2023-04-29T05:29:38;101843.53;;;10.17;100.00
58955;BME280;45815;52.334;5.024;2023-04-29T05:32:04;101845.19;;;10.15;100.00
58955;BME280;45815;52.334;5.024;2023-04-29T05:34:30;101840.97;;;10.19;100.00
58955;BME280;45815;52.334;5.024;2023-04-29T05:36:55;101848.06;;;10.21;100.00
58955;BME280;45815;52.334;5.024;2023-04-29T05:39:21;101849.50;;;10.13;100.00
58955;BME280;45815;52.334;5.024;2023-04-29T05:41:56;101848.59;;;10.12;100.00
58955;BME280;45815;52.334;5.024;2023-04-29T05:44:34;101853.97;;;10.15;100.00
58955;BME280;45815;52.334;5.024;2023-04-29T05:46:59;101854.81;;;10.14;100.00
58955;BME280;45815;52.334;5.024;2023-04-29T05:49:25;101852.13;;;10.13;100.00
58955;BME280;45815;52.334;5.024;2023-04-29T05:51:50;101869.66;;;10.14;100.00
58955;BME280;45815;52.334;5.024;2023-04-29T05:54:15;101873.06;;;10.11;100.00
58955;BME280;45815;52.334;5.024;2023-04-29T05:56:41;101873.28;;;10.18;100.00
58955;BME280;45815;52.334;5.024;2023-04-29T05:59:08;101879.47;;;10.20;100.00
58955;BME280;45815;52.334;5.024;2023-04-29T06:01:33;101871.59;;;10.20;100.00
58955;BME280;45815;52.334;5.024;2023-04-29T06:03:59;101872.41;;;10.17;100.00
58955;BME280;45815;52.334;5.024;2023-04-29T06:06:30;101878.63;;;10.21;100.00
58955;BME280;45815;52.334;5.024;2023-04-29T06:09:19;101874.66;;;10.08;100.00
58955;BME280;45815;52.334;5.024;2023-04-29T06:11:45;101882.78;;;10.14;100.00
58955;BME280;45815;52.334;5.024;2023-04-29T06:14:11;101883.75;;;10.16;100.00
58955;BME280;45815;52.334;5.024;2023-04-29T06:16:37;101878.34;;;10.13;100.00
58955;BME280;45815;52.334;5.024;2023-04-29T06:19:03;101891.53;;;10.14;100.00
58955;BME280;45815;52.334;5.024;2023-04-29T06:21:28;101896.88;;;10.18;100.00
58955;BME280;45815;52.334;5.024;2023-04-29T06:23:54;101902.09;;;10.16;100.00
58955;BME280;45815;52.334;5.024;2023-04-29T06:26:20;101906.59;;;10.20;100.00
58955;BME280;45815;52.334;5.024;2023-04-29T06:28:46;101904.13;;;10.23;100.00
58955;BME280;45815;52.334;5.024;2023-04-29T06:31:12;101911.81;;;10.19;100.00
58955;BME280;45815;52.334;5.024;2023-04-29T06:33:37;101917.25;;;10.23;100.00
58955;BME280;45815;52.334;5.024;2023-04-29T06:36:04;101922.66;;;10.28;100.00
58955;BME280;45815;52.334;5.024;2023-04-29T06:38:48;101927.44;;;10.38;100.00
58955;BME280;45815;52.334;5.024;2023-04-29T06:41:30;101925.97;;;10.46;100.00
58955;BME280;45815;52.334;5.024;2023-04-29T06:44:05;101927.84;;;10.49;100.00
58955;BME280;45815;52.334;5.024;2023-04-29T06:46:50;101933.31;;;10.55;100.00
58955;BME280;45815;52.334;5.024;2023-04-29T06:49:36;101924.72;;;10.59;100.00
58955;BME280;45815;52.334;5.024;2023-04-29T06:52:01;101927.56;;;10.65;100.00
58955;BME280;45815;52.334;5.024;2023-04-29T06:54:27;101937.38;;;10.71;100.00
58955;BME280;45815;52.334;5.024;2023-04-29T06:56:53;101925.03;;;10.68;100.00
58955;BME280;45815;52.334;5.024;2023-04-29T06:59:18;101934.81;;;10.72;100.00
58955;BME280;45815;52.334;5.024;2023-04-29T07:01:44;101951.84;;;10.84;100.00
58955;BME280;45815;52.334;5.024;2023-04-29T07:04:10;101954.59;;;10.87;100.00
58955;BME280;45815;52.334;5.024;2023-04-29T07:06:36;101951.22;;;10.91;100.00
58955;BME280;45815;52.334;5.024;2023-04-29T07:09:01;101951.34;;;10.94;100.00
58955;BME280;45815;52.334;5.024;2023-04-29T07:11:27;101958.63;;;11.03;100.00
58955;BME280;45815;52.334;5.024;2023-04-29T07:13:52;101956.31;;;11.12;100.00
58955;BME280;45815;52.334;5.024;2023-04-29T07:16:18;101964.69;;;11.26;100.00
58955;BME280;45815;52.334;5.024;2023-04-29T07:18:48;101968.16;;;11.25;100.00
58955;BME280;45815;52.334;5.024;2023-04-29T07:21:14;101974.38;;;11.27;100.00
58955;BME280;45815;52.334;5.024;2023-04-29T07:23:40;101971.84;;;11.30;100.00
58955;BME280;45815;52.334;5.024;2023-04-29T07:26:13;101970.06;;;11.29;100.00
58955;BME280;45815;52.334;5.024;2023-04-29T07:28:42;101979.00;;;11.34;100.00
58955;BME280;45815;52.334;5.024;2023-04-29T07:31:08;101988.03;;;11.42;100.00
58955;BME280;45815;52.334;5.024;2023-04-29T07:33:35;101980.28;;;11.47;100.00
58955;BME280;45815;52.334;5.024;2023-04-29T07:36:01;101996.34;;;11.54;100.00
58955;BME280;45815;52.334;5.024;2023-04-29T07:38:27;101989.44;;;11.58;100.00
58955;BME280;45815;52.334;5.024;2023-04-29T07:40:54;101986.97;;;11.62;100.00
58955;BME280;45815;52.334;5.024;2023-04-29T07:43:19;101982.72;;;11.66;100.00
58955;BME280;45815;52.334;5.024;2023-04-29T07:45:44;101967.63;;;11.60;100.00
58955;BME280;45815;52.334;5.024;2023-04-29T07:48:10;101990.63;;;11.68;100.00
58955;BME280;45815;52.334;5.024;2023-04-29T07:50:36;101991.06;;;11.80;100.00
58955;BME280;45815;52.334;5.024;2023-04-29T07:53:03;101997.53;;;11.90;100.00
58955;BME280;45815;52.334;5.024;2023-04-29T07:55:28;102005.88;;;12.03;100.00
58955;BME280;45815;52.334;5.024;2023-04-29T07:57:56;101996.31;;;12.07;100.00
58955;BME280;45815;52.334;5.024;2023-04-29T08:00:22;102011.69;;;12.22;100.00
58955;BME280;45815;52.334;5.024;2023-04-29T08:02:55;102000.25;;;12.20;100.00
58955;BME280;45815;52.334;5.024;2023-04-29T08:05:22;102011.28;;;12.37;100.00
58955;BME280;45815;52.334;5.024;2023-04-29T08:07:48;102014.22;;;12.48;100.00
58955;BME280;45815;52.334;5.024;2023-04-29T08:10:14;102014.63;;;12.61;100.00
58955;BME280;45815;52.334;5.024;2023-04-29T08:12:40;102015.16;;;12.78;100.00
58955;BME280;45815;52.334;5.024;2023-04-29T08:15:06;102019.78;;;12.87;100.00
58955;BME280;45815;52.334;5.024;2023-04-29T08:17:32;102028.16;;;13.04;100.00
58955;BME280;45815;52.334;5.024;2023-04-29T08:19:57;102026.56;;;13.09;100.00
58955;BME280;45815;52.334;5.024;2023-04-29T08:22:23;102015.53;;;13.24;100.00
58955;BME280;45815;52.334;5.024;2023-04-29T08:24:48;102024.56;;;13.32;100.00
58955;BME280;45815;52.334;5.024;2023-04-29T08:27:14;102025.84;;;13.48;100.00
58955;BME280;45815;52.334;5.024;2023-04-29T08:29:40;102029.97;;;13.71;100.00
58955;BME280;45815;52.334;5.024;2023-04-29T08:32:06;102022.84;;;14.04;100.00
58955;BME280;45815;52.334;5.024;2023-04-29T08:34:31;102033.19;;;14.31;100.00
58955;BME280;45815;52.334;5.024;2023-04-29T08:36:57;102035.59;;;14.60;100.00
58955;BME280;45815;52.334;5.024;2023-04-29T08:39:23;102035.16;;;14.81;100.00
58955;BME280;45815;52.334;5.024;2023-04-29T08:41:49;102031.44;;;15.15;100.00
58955;BME280;45815;52.334;5.024;2023-04-29T08:44:16;102036.19;;;15.33;100.00
58955;BME280;45815;52.334;5.024;2023-04-29T08:46:43;102039.13;;;15.50;100.00
58955;BME280;45815;52.334;5.024;2023-04-29T08:49:10;102039.56;;;15.71;100.00
58955;BME280;45815;52.334;5.024;2023-04-29T08:51:35;102041.69;;;15.94;100.00
58955;BME280;45815;52.334;5.024;2023-04-29T08:54:01;102034.84;;;16.07;100.00
58955;BME280;45815;52.334;5.024;2023-04-29T08:56:27;102049.31;;;16.32;100.00
58955;BME280;45815;52.334;5.024;2023-04-29T08:58:56;102048.75;;;16.51;100.00
58955;BME280;45815;52.334;5.024;2023-04-29T09:01:26;102046.22;;;16.60;100.00
58955;BME280;45815;52.334;5.024;2023-04-29T09:04:00;102056.06;;;16.71;100.00
58955;BME280;45815;52.334;5.024;2023-04-29T09:06:29;102056.31;;;16.86;100.00
58955;BME280;45815;52.334;5.024;2023-04-29T09:08:58;102059.06;;;16.95;100.00
58955;BME280;45815;52.334;5.024;2023-04-29T09:11:24;102059.19;;;17.04;100.00
58955;BME280;45815;52.334;5.024;2023-04-29T09:13:57;102062.78;;;17.09;100.00
58955;BME280;45815;52.334;5.024;2023-04-29T09:16:23;102064.66;;;17.20;100.00
58955;BME280;45815;52.334;5.024;2023-04-29T09:18:50;102070.09;;;17.32;100.00
58955;BME280;45815;52.334;5.024;2023-04-29T09:23:46;102071.97;;;17.42;100.00
58955;BME280;45815;52.334;5.024;2023-04-29T09:26:12;102073.88;;;17.56;100.00
58955;BME280;45815;52.334;5.024;2023-04-29T09:28:38;102065.13;;;17.66;100.00
58955;BME280;45815;52.334;5.024;2023-04-29T09:31:10;102065.19;;;17.70;100.00
58955;BME280;45815;52.334;5.024;2023-04-29T09:33:55;102062.44;;;17.63;100.00
58955;BME280;45815;52.334;5.024;2023-04-29T09:36:54;102073.25;;;17.81;100.00
58955;BME280;45815;52.334;5.024;2023-04-29T09:39:23;102073.38;;;17.95;100.00
58955;BME280;45815;52.334;5.024;2023-04-29T09:44:14;102081.53;;;18.15;100.00
58955;BME280;45815;52.334;5.024;2023-04-29T09:46:40;102070.00;;;18.14;100.00
58955;BME280;45815;52.334;5.024;2023-04-29T09:49:42;102086.03;;;18.27;100.00
58955;BME280;45815;52.334;5.024;2023-04-29T09:52:11;102079.91;;;18.39;100.00
58955;BME280;45815;52.334;5.024;2023-04-29T09:54:37;102064.91;;;18.45;100.00
58955;BME280;45815;52.334;5.024;2023-04-29T09:57:04;102074.78;;;18.69;100.00
58955;BME280;45815;52.334;5.024;2023-04-29T09:59:31;102080.19;;;18.82;100.00
58955;BME280;45815;52.334;5.024;2023-04-29T10:01:58;102086.41;;;18.88;100.00
58955;BME280;45815;52.334;5.024;2023-04-29T10:04:25;102085.53;;;18.88;100.00
58955;BME280;45815;52.334;5.024;2023-04-29T10:06:53;102079.38;;;19.03;100.00
58955;BME280;45815;52.334;5.024;2023-04-29T10:09:20;102088.28;;;19.09;100.00
58955;BME280;45815;52.334;5.024;2023-04-29T10:11:50;102092.75;;;19.24;100.00
58955;BME280;45815;52.334;5.024;2023-04-29T10:14:23;102092.81;;;19.35;100.00
58955;BME280;45815;52.334;5.024;2023-04-29T10:16:58;102096.34;;;19.31;100.00
58955;BME280;45815;52.334;5.024;2023-04-29T10:19:33;102082.16;;;19.35;99.30
58955;BME280;45815;52.334;5.024;2023-04-29T10:22:06;102092.84;;;19.52;99.30
58955;BME280;45815;52.334;5.024;2023-04-29T10:24:34;102080.41;;;19.52;99.35
58955;BME280;45815;52.334;5.024;2023-04-29T10:27:06;102094.63;;;19.64;99.69
58955;BME280;45815;52.334;5.024;2023-04-29T10:29:33;102098.22;;;19.78;97.22
58955;BME280;45815;52.334;5.024;2023-04-29T10:32:02;102092.94;;;19.90;97.24
58955;BME280;45815;52.334;5.024;2023-04-29T10:34:28;102102.69;;;19.91;95.70
58955;BME280;45815;52.334;5.024;2023-04-29T10:36:54;102094.69;;;19.90;95.81
58955;BME280;45815;52.334;5.024;2023-04-29T10:39:28;102093.81;;;19.86;94.22
58955;BME280;45815;52.334;5.024;2023-04-29T10:41:55;102089.38;;;19.88;93.42
58955;BME280;45815;52.334;5.024;2023-04-29T10:44:21;102096.47;;;19.92;94.89
58955;BME280;45815;52.334;5.024;2023-04-29T10:46:48;102096.47;;;19.95;92.42
58955;BME280;45815;52.334;5.024;2023-04-29T10:49:13;102094.69;;;20.03;91.19
58955;BME280;45815;52.334;5.024;2023-04-29T10:51:41;102094.69;;;20.13;91.57
58955;BME280;45815;52.334;5.024;2023-04-29T10:54:08;102095.56;;;20.13;92.17
58955;BME280;45815;52.334;5.024;2023-04-29T10:56:40;102098.25;;;20.21;91.92
58955;BME280;45815;52.334;5.024;2023-04-29T10:59:14;102095.56;;;20.19;88.70
58955;BME280;45815;52.334;5.024;2023-04-29T11:01:51;102084.03;;;20.28;89.38
58955;BME280;45815;52.334;5.024;2023-04-29T11:04:18;102099.09;;;20.46;90.24
58955;BME280;45815;52.334;5.024;2023-04-29T11:06:51;102092.88;;;20.47;87.50
58955;BME280;45815;52.334;5.024;2023-04-29T11:09:23;102092.84;;;20.55;87.70
58955;BME280;45815;52.334;5.024;2023-04-29T11:14:27;102096.41;;;20.51;83.34
58955;BME280;45815;52.334;5.024;2023-04-29T11:16:56;102093.75;;;20.69;86.32
58955;BME280;45815;52.334;5.024;2023-04-29T11:19:44;102114.19;;;20.67;84.82
58955;BME280;45815;52.334;5.024;2023-04-29T11:27:30;102103.38;;;21.08;82.75
58955;BME280;45815;52.334;5.024;2023-04-29T11:29:56;102111.31;;;21.21;83.44
58955;BME280;45815;52.334;5.024;2023-04-29T11:32:27;102110.47;;;21.17;82.48
58955;BME280;45815;52.334;5.024;2023-04-29T11:34:53;102114.91;;;21.21;83.56
58955;BME280;45815;52.334;5.024;2023-04-29T11:37:25;102118.50;;;21.06;80.50
58955;BME280;45815;52.334;5.024;2023-04-29T11:39:58;102112.31;;;21.00;82.48
58955;BME280;45815;52.334;5.024;2023-04-29T11:42:23;102118.53;;;21.10;83.87
58955;BME280;45815;52.334;5.024;2023-04-29T11:44:53;102116.72;;;21.15;82.91
58955;BME280;45815;52.334;5.024;2023-04-29T11:47:28;102122.88;;;21.27;82.59
58955;BME280;45815;52.334;5.024;2023-04-29T11:50:07;102128.22;;;21.29;83.75
58955;BME280;45815;52.334;5.024;2023-04-29T11:52:42;102129.06;;;21.34;77.70
58955;BME280;45815;52.334;5.024;2023-04-29T11:55:09;102129.00;;;21.53;81.06
58955;BME280;45815;52.334;5.024;2023-04-29T11:57:36;102129.94;;;21.45;81.18
58955;BME280;45815;52.334;5.024;2023-04-29T12:00:02;102127.16;;;21.61;80.65
58955;BME280;45815;52.334;5.024;2023-04-29T12:02:33;102117.34;;;21.64;79.47
58955;BME280;45815;52.334;5.024;2023-04-29T12:05:02;102122.66;;;21.67;80.20
58955;BME280;45815;52.334;5.024;2023-04-29T12:07:29;102117.28;;;21.74;79.89
58955;BME280;45815;52.334;5.024;2023-04-29T12:09:55;102119.09;;;21.73;78.23
58955;BME280;45815;52.334;5.024;2023-04-29T12:12:24;102123.41;;;21.91;77.92
58955;BME280;45815;52.334;5.024;2023-04-29T12:14:52;102110.94;;;21.88;77.08
58955;BME280;45815;52.334;5.024;2023-04-29T12:17:18;102119.78;;;22.00;77.67
58955;BME280;45815;52.334;5.024;2023-04-29T12:19:44;102125.94;;;22.09;76.39
58955;BME280;45815;52.334;5.024;2023-04-29T12:22:10;102115.09;;;22.28;75.03
58955;BME280;45815;52.334;5.024;2023-04-29T12:24:37;102116.69;;;22.47;73.22
58955;BME280;45815;52.334;5.024;2023-04-29T12:27:06;102122.91;;;22.52;71.91
58955;BME280;45815;52.334;5.024;2023-04-29T12:29:34;102118.41;;;22.54;71.66
58955;BME280;45815;52.334;5.024;2023-04-29T12:32:00;102108.69;;;22.44;73.49
58955;BME280;45815;52.334;5.024;2023-04-29T12:34:27;102125.41;;;22.69;74.26
58955;BME280;45815;52.334;5.024;2023-04-29T12:36:54;102123.56;;;22.74;75.45
58955;BME280;45815;52.334;5.024;2023-04-29T12:39:20;102120.88;;;22.74;75.39
58955;BME280;45815;52.334;5.024;2023-04-29T12:41:46;102114.56;;;22.80;74.95
58955;BME280;45815;52.334;5.024;2023-04-29T12:44:11;102116.28;;;22.84;73.54
58955;BME280;45815;52.334;5.024;2023-04-29T12:46:38;102120.66;;;22.91;73.56
58955;BME280;45815;52.334;5.024;2023-04-29T12:49:04;102117.06;;;22.94;71.70
58955;BME280;45815;52.334;5.024;2023-04-29T12:51:31;102127.78;;;22.95;71.81
58955;BME280;45815;52.334;5.024;2023-04-29T12:53:58;102125.91;;;23.04;69.55
58955;BME280;45815;52.334;5.024;2023-04-29T12:56:24;102122.34;;;23.05;68.11
58955;BME280;45815;52.334;5.024;2023-04-29T12:58:49;102126.75;;;23.09;69.10
58955;BME280;45815;52.334;5.024;2023-04-29T13:01:14;102120.38;;;23.17;68.32
58955;BME280;45815;52.334;5.024;2023-04-29T13:03:40;102121.28;;;23.18;67.49
58955;BME280;45815;52.334;5.024;2023-04-29T13:06:06;102121.06;;;23.33;70.30
58955;BME280;45815;52.334;5.024;2023-04-29T13:08:32;102112.28;;;23.22;69.12